Time;durP1;ratioP1;P1;durP2;ratioP2;P2;SDS_P1;SDS_P2;PMS_P1;PMS_P2;Temp;Humidity;BMP_temperature;BMP_pressure;BME280_temperature;BME280_humidity;BME280_pressure;Samples;Min_cycle;Max_cycle;Signal;HPM_P1;HPM_P2
2022/09/22 00:00:41;;;;;;;;;10.00;9.00;;;;;15.87;45.77;101775.19;5016933;28;45258;-65
2022/09/22 00:03:07;;;;;;;;;9.33;9.33;;;;;16.01;46.10;101804.16;5015854;28;46972;-66
2022/09/22 00:05:32;;;;;;;;;9.00;9.00;;;;;16.00;46.24;101791.72;5016267;28;45415;-65
2022/09/22 00:08:00;;;;;;;;;9.67;8.67;;;;;15.88;46.09;101770.69;5016566;28;45726;-64
2022/09/22 00:10:27;;;;;;;;;8.67;7.67;;;;;16.01;46.37;101792.56;5016542;28;45237;-64
2022/09/22 00:12:54;;;;;;;;;6.00;6.00;;;;;15.40;46.12;101697.63;5016363;28;46023;-65
2022/09/22 00:15:20;;;;;;;;;8.67;8.67;;;;;15.51;45.95;101728.72;5016420;28;45391;-65
2022/09/22 00:17:46;;;;;;;;;3.00;2.00;;;;;15.95;46.27;101794.03;5016338;28;45309;-65
2022/09/22 00:20:12;;;;;;;;;9.33;8.67;;;;;15.50;45.88;101717.16;5016209;28;45467;-67
2022/09/22 00:22:39;;;;;;;;;7.67;7.67;;;;;15.92;46.70;101794.34;5015928;28;46461;-66
2022/09/22 00:25:05;;;;;;;;;7.33;7.33;;;;;15.85;46.26;101787.09;5016546;28;45521;-65
2022/09/22 00:27:30;;;;;;;;;3.67;3.67;;;;;15.88;46.67;101787.63;5016465;28;45310;-65
2022/09/22 00:29:56;;;;;;;;;6.00;6.00;;;;;15.81;45.99;101781.16;5016435;28;45281;-66
2022/09/22 00:32:21;;;;;;;;;5.33;5.33;;;;;15.76;46.23;101772.75;5016102;28;46486;-65
2022/09/22 00:34:46;;;;;;;;;7.00;6.67;;;;;15.84;46.68;101796.97;5014722;28;46272;-66
2022/09/22 00:37:12;;;;;;;;;8.00;5.33;;;;;15.32;46.88;101697.56;5016438;28;45459;-65
2022/09/22 00:39:37;;;;;;;;;11.33;10.33;;;;;15.83;46.79;101781.88;5016334;28;45273;-66
2022/09/22 00:42:03;;;;;;;;;10.33;7.67;;;;;15.64;47.14;101755.22;5015744;28;45564;-65
2022/09/22 00:44:28;;;;;;;;;11.67;10.00;;;;;15.81;46.75;101783.84;5016025;28;45563;-65
2022/09/22 00:47:18;;;;;;;;;10.33;10.33;;;;;15.80;47.24;101791.03;5016323;28;45294;-65
2022/09/22 00:50:08;;;;;;;;;12.00;9.00;;;;;15.71;47.40;101775.03;5016363;28;45595;-66
2022/09/22 00:52:52;;;;;;;;;8.00;8.00;;;;;15.75;47.57;101790.66;5011945;28;47525;-66
2022/09/22 00:55:24;;;;;;;;;9.00;8.00;;;;;15.74;47.61;101788.13;5015816;28;45214;-66
2022/09/22 00:57:52;;;;;;;;;10.67;9.00;;;;;15.71;47.93;101796.50;5016342;28;45503;-66
2022/09/22 01:00:18;;;;;;;;;12.67;11.67;;;;;15.70;47.96;101792.13;5008861;28;45596;-64
2022/09/22 01:02:50;;;;;;;;;9.00;9.00;;;;;15.60;47.66;101772.56;5015623;28;46166;-66
2022/09/22 01:05:17;;;;;;;;;13.00;13.00;;;;;15.67;47.63;101795.94;5016060;28;45388;-66
2022/09/22 01:07:43;;;;;;;;;12.33;11.00;;;;;15.64;47.60;101782.00;5031216;28;45438;-65
2022/09/22 01:10:10;;;;;;;;;7.00;5.67;;;;;15.52;47.44;101771.47;5015762;28;45153;-65
2022/09/22 01:12:36;;;;;;;;;9.33;9.33;;;;;15.30;47.58;101738.91;5015874;28;45651;-65
2022/09/22 01:15:05;;;;;;;;;8.67;8.33;;;;;14.88;47.52;101670.63;5014003;28;45669;-64
2022/09/22 01:17:33;;;;;;;;;8.00;6.33;;;;;15.54;47.51;101782.03;5018739;28;45448;-65
2022/09/22 01:20:36;;;;;;;;;7.33;7.33;;;;;15.49;47.70;101774.44;5019110;28;45415;-67
2022/09/22 01:23:18;;;;;;;;;8.67;8.67;;;;;15.48;47.63;101774.59;5018658;28;45678;-65
2022/09/22 01:25:59;;;;;;;;;13.33;7.00;;;;;15.43;47.86;101767.03;5017638;28;45558;-65
2022/09/22 01:28:41;;;;;;;;;7.33;7.33;;;;;14.96;47.85;101695.81;5039531;28;45287;-64
2022/09/22 01:31:16;;;;;;;;;9.00;9.00;;;;;14.82;48.06;101679.25;5016926;28;45440;-65
2022/09/22 01:33:51;;;;;;;;;6.00;6.00;;;;;15.14;48.17;101740.38;5018730;28;46044;-65
2022/09/22 01:36:54;;;;;;;;;7.33;6.33;;;;;15.21;48.57;101767.41;5018702;28;45331;-65
2022/09/22 01:39:36;;;;;;;;;8.33;7.67;;;;;15.00;48.67;101740.88;5012020;28;45520;-64
2022/09/22 01:42:13;;;;;;;;;5.67;5.67;;;;;15.14;49.08;101769.84;5018875;28;45427;-65
2022/09/22 01:44:48;;;;;;;;;8.33;8.00;;;;;15.08;49.36;101766.94;5018585;28;46588;-65
2022/09/22 01:47:18;;;;;;;;;9.67;6.33;;;;;15.01;49.16;101755.94;5018149;28;45308;-63
2022/09/22 01:49:51;;;;;;;;;7.33;6.33;;;;;14.78;49.25;101722.50;5018377;28;45252;-65
2022/09/22 01:52:22;;;;;;;;;9.67;9.67;;;;;14.26;49.60;101658.75;5018494;28;45376;-64
2022/09/22 01:54:59;;;;;;;;;9.67;8.33;;;;;14.90;49.54;101764.19;5018029;28;46445;-64
2022/09/22 01:57:37;;;;;;;;;11.00;9.67;;;;;14.93;49.51;101763.03;5018418;28;45358;-64
2022/09/22 02:00:07;;;;;;;;;9.33;8.00;;;;;14.91;49.75;101761.34;5018266;28;45218;-66
2022/09/22 02:02:41;;;;;;;;;8.67;8.67;;;;;14.84;49.44;101762.09;5011400;28;45252;-65
2022/09/22 02:05:14;;;;;;;;;7.33;7.33;;;;;14.89;49.82;101762.50;5033323;28;46642;-66
2022/09/22 02:07:47;;;;;;;;;10.00;9.33;;;;;14.94;49.67;101772.75;5018261;28;45131;-64
2022/09/22 02:10:16;;;;;;;;;9.00;8.67;;;;;14.95;49.71;101777.13;5018209;28;45221;-64
2022/09/22 02:12:42;;;;;;;;;9.33;8.67;;;;;14.89;49.87;101768.69;5018250;28;45495;-64
2022/09/22 02:17:56;;;;;;;;;13.67;11.00;;;;;14.85;49.94;101761.97;5012574;28;45483;-65
2022/09/22 02:20:23;;;;;;;;;8.00;7.67;;;;;14.72;50.17;101750.72;5018156;28;45629;-64
2022/09/22 02:22:48;;;;;;;;;8.00;8.00;;;;;14.66;50.70;101759.34;5018651;28;45495;-64
2022/09/22 02:25:14;;;;;;;;;13.00;11.00;;;;;14.57;50.94;101747.66;5017824;28;46729;-65
2022/09/22 02:27:41;;;;;;;;;6.33;6.33;;;;;14.59;51.12;101760.91;5017721;28;45408;-65
2022/09/22 02:30:10;;;;;;;;;10.33;9.33;;;;;14.51;50.81;101742.06;5018455;28;45315;-64
2022/09/22 02:32:40;;;;;;;;;10.33;8.00;;;;;14.54;51.21;101764.00;5008937;28;45435;-64
2022/09/22 02:35:07;;;;;;;;;9.33;8.33;;;;;14.49;51.39;101760.09;5017707;28;46741;-64
2022/09/22 02:37:56;;;;;;;;;7.33;7.33;;;;;14.51;51.23;101752.75;5017279;28;45460;-65
2022/09/22 02:40:28;;;;;;;;;6.00;6.00;;;;;14.51;51.29;101747.41;5017771;28;45254;-65
2022/09/22 02:43:02;;;;;;;;;10.33;8.33;;;;;14.51;51.75;101756.28;5018262;28;45504;-64
2022/09/22 02:45:39;;;;;;;;;7.33;6.33;;;;;14.46;51.15;101750.53;5017534;28;46310;-65
2022/09/22 02:48:17;;;;;;;;;7.33;7.33;;;;;14.04;51.44;101688.50;5017923;28;45359;-64
2022/09/22 02:50:44;;;;;;;;;7.67;7.67;;;;;14.40;51.93;101744.84;5017626;28;45347;-66
2022/09/22 02:53:15;;;;;;;;;8.67;8.67;;;;;14.06;51.71;101675.00;5017939;28;45286;-64
2022/09/22 02:55:42;;;;;;;;;8.33;6.33;;;;;14.42;51.61;101734.88;5017238;28;46449;-64
2022/09/22 02:58:07;;;;;;;;;8.67;7.67;;;;;14.46;51.64;101741.66;5017699;28;45703;-64
2022/09/22 03:00:33;;;;;;;;;9.00;8.00;;;;;13.90;51.45;101647.00;5017253;28;45638;-65
2022/09/22 03:02:59;;;;;;;;;7.00;7.00;;;;;14.44;51.81;101741.81;5018094;28;45194;-64
2022/09/22 03:05:24;;;;;;;;;9.00;9.00;;;;;14.38;51.90;101742.34;5017291;28;46565;-65
2022/09/22 03:07:50;;;;;;;;;8.00;8.00;;;;;14.32;51.41;101711.66;5017810;28;45317;-65
2022/09/22 03:10:15;;;;;;;;;7.67;7.33;;;;;14.49;51.86;101738.69;5017259;28;45259;-65
2022/09/22 03:12:43;;;;;;;;;11.00;10.00;;;;;14.43;51.60;101737.44;5016016;28;45220;-64
2022/09/22 03:15:10;;;;;;;;;9.67;8.67;;;;;14.42;51.84;101734.88;5017184;28;45782;-65
2022/09/22 03:17:36;;;;;;;;;9.33;7.67;;;;;14.32;51.81;101710.81;5016824;28;45472;-64
2022/09/22 03:20:05;;;;;;;;;8.33;8.33;;;;;14.38;51.78;101730.78;5017233;28;45383;-63
2022/09/22 03:22:31;;;;;;;;;9.33;9.33;;;;;14.38;52.30;101747.69;5016847;28;45244;-63
2022/09/22 03:24:56;;;;;;;;;8.33;8.00;;;;;14.34;51.72;101740.94;5016386;28;47703;-64
2022/09/22 03:27:22;;;;;;;;;9.00;9.00;;;;;14.36;51.74;101727.41;5015416;28;45271;-65
2022/09/22 03:29:47;;;;;;;;;7.33;7.33;;;;;14.24;52.20;101727.59;5016737;28;45908;-65
2022/09/22 03:32:12;;;;;;;;;8.33;8.00;;;;;14.17;52.47;101718.44;5016842;28;45542;-65
2022/09/22 03:34:38;;;;;;;;;9.67;9.67;;;;;14.15;52.31;101731.13;5016073;28;51292;-66
2022/09/22 03:37:03;;;;;;;;;7.33;6.33;;;;;14.03;52.38;101715.41;5014923;28;66083;-65
2022/09/22 03:39:28;;;;;;;;;6.67;6.67;;;;;14.12;52.37;101727.88;5011087;28;45505;-76
2022/09/22 03:41:54;;;;;;;;;9.67;8.67;;;;;13.90;52.41;101688.94;5012254;28;45503;-64
2022/09/22 03:44:19;;;;;;;;;10.67;10.33;;;;;14.03;52.75;101721.59;5011968;28;48632;-64
2022/09/22 03:46:45;;;;;;;;;9.33;9.33;;;;;14.08;52.37;101724.66;5014846;28;45500;-64
2022/09/22 03:49:11;;;;;;;;;8.33;8.33;;;;;13.82;52.53;101678.13;5016986;28;45598;-65
2022/09/22 03:51:36;;;;;;;;;12.33;9.00;;;;;14.03;52.61;101720.75;5014819;28;45412;-67
2022/09/22 03:54:01;;;;;;;;;7.33;7.33;;;;;13.79;52.60;101670.38;5016497;28;45556;-65
2022/09/22 03:56:27;;;;;;;;;11.00;9.33;;;;;14.13;52.75;101722.41;5016025;28;45617;-65
2022/09/22 03:58:52;;;;;;;;;9.00;8.67;;;;;14.06;53.13;101710.59;5016086;28;45424;-64
2022/09/22 04:01:17;;;;;;;;;7.33;7.33;;;;;14.09;52.63;101721.00;5017085;28;45384;-65
2022/09/22 04:03:43;;;;;;;;;10.00;8.67;;;;;14.02;53.04;101722.56;5014994;28;48733;-65
2022/09/22 04:06:08;;;;;;;;;8.00;7.00;;;;;13.75;53.04;101677.84;5016542;28;45398;-65
2022/09/22 04:08:34;;;;;;;;;12.33;8.33;;;;;13.59;52.62;101635.66;5016249;28;45354;-63
2022/09/22 04:11:00;;;;;;;;;11.67;11.00;;;;;14.03;52.80;101716.22;5016066;28;45486;-65
2022/09/22 04:13:26;;;;;;;;;9.67;9.00;;;;;14.01;52.69;101710.16;5014687;28;47409;-65
2022/09/22 04:15:51;;;;;;;;;8.67;8.67;;;;;14.02;52.45;101703.84;5016042;28;45772;-65
2022/09/22 04:18:17;;;;;;;;;11.00;11.00;;;;;14.09;52.64;101707.63;5016508;28;45971;-64
2022/09/22 04:20:43;;;;;;;;;7.33;7.33;;;;;14.11;52.67;101696.78;5015740;28;45471;-63
2022/09/22 04:23:13;;;;;;;;;10.67;9.33;;;;;13.94;52.83;101679.66;5016144;28;45602;-65
2022/09/22 04:25:39;;;;;;;;;9.33;9.33;;;;;14.02;53.05;101706.53;5030981;28;45294;-64
2022/09/22 04:28:05;;;;;;;;;11.67;11.00;;;;;14.07;53.01;101704.25;5016008;28;45237;-64
2022/09/22 04:30:32;;;;;;;;;6.67;5.67;;;;;14.11;52.57;101702.97;5031473;28;45418;-64
2022/09/22 04:32:58;;;;;;;;;9.67;8.33;;;;;13.85;52.71;101662.66;5015543;28;46545;-64
2022/09/22 04:35:25;;;;;;;;;9.67;8.67;;;;;14.13;52.53;101703.69;5010896;28;45498;-66
2022/09/22 04:37:52;;;;;;;;;9.00;8.33;;;;;14.11;52.36;101699.47;5013198;28;45333;-64
2022/09/22 04:40:18;;;;;;;;;10.33;10.00;;;;;13.93;52.12;101667.25;5016229;28;45470;-65
2022/09/22 04:42:45;;;;;;;;;6.67;6.67;;;;;14.10;52.64;101700.44;5015800;28;46767;-65
2022/09/22 04:45:11;;;;;;;;;10.67;8.33;;;;;14.07;52.69;101695.41;5030912;28;45411;-64
2022/09/22 04:47:37;;;;;;;;;5.33;5.33;;;;;14.00;52.55;101695.94;5031085;28;45462;-63
2022/09/22 04:50:03;;;;;;;;;7.67;7.67;;;;;13.93;52.26;101683.31;5017007;28;45557;-65
2022/09/22 04:52:28;;;;;;;;;11.67;9.67;;;;;13.54;52.74;101611.19;5019403;28;46379;-64
2022/09/22 04:54:54;;;;;;;;;13.33;10.33;;;;;14.04;53.01;101695.69;5019272;28;45391;-65
2022/09/22 04:57:19;;;;;;;;;9.00;9.00;;;;;13.53;53.10;101608.66;5018112;28;55232;-64
2022/09/22 04:59:44;;;;;;;;;11.00;10.67;;;;;13.98;52.75;101697.94;5019123;28;45399;-65
2022/09/22 05:02:10;;;;;;;;;11.67;9.67;;;;;13.98;52.68;101695.25;5019033;28;46491;-64
2022/09/22 05:04:35;;;;;;;;;10.00;10.00;;;;;14.04;52.71;101696.53;5019260;28;45418;-65
2022/09/22 05:07:00;;;;;;;;;10.33;8.67;;;;;14.05;52.19;101702.72;5034499;28;45603;-64
2022/09/22 05:09:27;;;;;;;;;11.00;9.33;;;;;13.97;52.52;101690.88;5019263;28;45459;-66
2022/09/22 05:11:53;;;;;;;;;10.00;9.00;;;;;14.03;51.99;101700.19;5012656;28;46759;-65
2022/09/22 05:14:18;;;;;;;;;9.67;9.67;;;;;13.99;52.13;101701.44;5017234;28;45221;-65
2022/09/22 05:16:43;;;;;;;;;11.33;9.00;;;;;14.06;52.48;101715.09;5019127;28;45326;-64
2022/09/22 05:19:12;;;;;;;;;7.67;7.67;;;;;14.06;52.27;101715.09;5019494;28;45536;-64
2022/09/22 05:21:37;;;;;;;;;9.00;9.00;;;;;14.02;52.41;101709.19;5011164;28;48113;-63
2022/09/22 05:24:03;;;;;;;;;12.33;10.00;;;;;13.99;52.90;101709.47;5017396;28;45420;-65
2022/09/22 05:26:31;;;;;;;;;10.00;10.00;;;;;13.87;52.55;101689.22;5018619;28;45518;-66
2022/09/22 05:28:57;;;;;;;;;8.67;8.67;;;;;13.96;51.97;101715.09;5019002;28;45495;-64
2022/09/22 05:31:23;;;;;;;;;12.00;10.67;;;;;13.76;52.34;101673.34;5017824;28;46202;-69
2022/09/22 05:33:48;;;;;;;;;11.67;9.33;;;;;13.93;52.72;101699.34;5010553;28;45619;-65
2022/09/22 05:36:14;;;;;;;;;8.67;8.67;;;;;13.98;52.67;101713.13;5018910;28;45393;-65
2022/09/22 05:38:39;;;;;;;;;11.33;11.00;;;;;13.90;52.85;101713.00;5019075;28;45321;-66
2022/09/22 05:41:05;;;;;;;;;11.67;10.00;;;;;13.87;52.81;101714.13;5018537;28;46416;-64
2022/09/22 05:43:31;;;;;;;;;12.33;10.33;;;;;13.92;53.05;101727.06;5017396;28;46373;-66
2022/09/22 05:45:56;;;;;;;;;7.67;7.67;;;;;13.93;52.83;101728.75;5033600;28;46289;-64
2022/09/22 05:48:21;;;;;;;;;12.67;10.00;;;;;13.85;52.85;101717.94;5017051;28;45538;-66
2022/09/22 05:50:48;;;;;;;;;8.00;8.00;;;;;13.96;52.94;101734.66;5018136;28;45553;-66
2022/09/22 05:53:14;;;;;;;;;10.00;8.67;;;;;13.98;52.85;101739.84;5024958;28;45486;-68
2022/09/22 05:55:40;;;;;;;;;9.33;9.33;;;;;13.89;52.96;101724.69;5021693;28;45579;-65
2022/09/22 05:58:08;;;;;;;;;11.33;11.33;;;;;13.91;53.05;101734.25;5016918;28;46385;-65
2022/09/22 06:00:33;;;;;;;;;11.00;10.33;;;;;13.93;52.43;101734.09;5017996;28;46427;-68
2022/09/22 06:02:59;;;;;;;;;10.67;9.67;;;;;13.70;52.54;101688.13;5017357;28;45237;-67
2022/09/22 06:05:24;;;;;;;;;11.00;10.00;;;;;13.97;52.70;101739.00;5018340;28;45266;-65
2022/09/22 06:08:02;;;;;;;;;16.33;15.33;;;;;14.03;52.77;101747.47;5018336;28;45218;-67
2022/09/22 06:10:28;;;;;;;;;27.67;25.00;;;;;14.06;52.66;101742.69;5010595;28;46636;-66
2022/09/22 06:13:12;;;;;;;;;29.67;24.67;;;;;13.63;52.41;101665.63;5033209;28;46321;-65
2022/09/22 06:15:38;;;;;;;;;20.00;17.33;;;;;14.09;52.67;101739.72;5011125;28;45358;-66
2022/09/22 06:18:07;;;;;;;;;22.67;14.67;;;;;14.06;53.12;101741.84;5018950;28;45471;-70
2022/09/22 06:20:34;;;;;;;;;28.00;24.00;;;;;14.07;53.49;101744.38;5017558;28;45691;-66
2022/09/22 06:22:59;;;;;;;;;22.00;21.00;;;;;13.64;52.82;101665.47;5018211;28;45520;-66
2022/09/22 06:25:27;;;;;;;;;17.67;17.00;;;;;14.14;53.03;101728.59;5017635;28;45477;-69
2022/09/22 06:28:01;;;;;;;;;9.33;8.67;;;;;14.11;52.95;101713.69;5011407;28;45471;-69
2022/09/22 06:30:26;;;;;;;;;13.00;12.67;;;;;14.24;52.71;101727.59;5024469;28;48028;-66
2022/09/22 06:32:55;;;;;;;;;12.00;11.33;;;;;13.94;52.43;101663.59;5017711;28;45551;-67
2022/09/22 06:35:20;;;;;;;;;12.33;12.33;;;;;14.16;52.55;101703.38;5018005;28;45432;-65
2022/09/22 06:37:49;;;;;;;;;13.67;12.00;;;;;14.25;52.61;101726.63;5017587;28;45554;-65
2022/09/22 06:40:14;;;;;;;;;14.67;12.33;;;;;13.83;52.33;101650.41;5017717;28;45534;-67
2022/09/22 06:42:41;;;;;;;;;14.00;14.00;;;;;13.97;52.71;101668.66;5015356;28;58931;-66
2022/09/22 06:45:07;;;;;;;;;11.67;11.67;;;;;14.36;52.31;101727.41;5019157;28;45375;-67
2022/09/22 06:47:33;;;;;;;;;13.67;13.00;;;;;14.35;52.04;101704.34;5017241;28;45427;-66
2022/09/22 06:50:04;;;;;;;;;17.67;15.00;;;;;14.44;52.16;101708.84;5016850;28;46533;-66
2022/09/22 06:52:29;;;;;;;;;15.33;14.67;;;;;14.55;51.94;101714.00;5017615;28;45373;-71
2022/09/22 06:54:59;;;;;;;;;15.33;14.00;;;;;14.63;51.97;101700.75;5032410;28;45245;-67
2022/09/22 06:57:29;;;;;;;;;16.67;12.67;;;;;15.34;50.59;101708.97;5018718;28;45478;-65
2022/09/22 06:59:55;;;;;;;;;18.33;15.00;;;;;16.24;48.25;101713.31;5015561;28;46283;-66
2022/09/22 07:02:27;;;;;;;;;13.67;13.67;;;;;16.37;46.60;101611.72;5015807;28;45966;-67
2022/09/22 07:04:54;;;;;;;;;11.67;11.33;;;;;17.63;45.14;101696.75;5016191;28;45452;-69
2022/09/22 07:07:20;;;;;;;;;13.33;12.00;;;;;18.46;43.27;101701.09;5011935;28;45344;-66
2022/09/22 07:09:45;;;;;;;;;16.00;16.00;;;;;18.62;41.70;101605.91;5011303;28;47141;-67
2022/09/22 07:12:10;;;;;;;;;19.00;16.67;;;;;20.11;39.59;101717.03;5012579;28;45632;-68
2022/09/22 07:14:36;;;;;;;;;15.00;14.33;;;;;20.92;38.68;101714.31;5015144;28;45415;-67
2022/09/22 07:17:01;;;;;;;;;18.00;16.00;;;;;21.58;37.15;101697.19;5016959;28;45494;-68
2022/09/22 07:19:27;;;;;;;;;15.33;13.67;;;;;22.30;35.77;101713.25;5016640;28;46418;-72
2022/09/22 07:21:52;;;;;;;;;18.67;16.67;;;;;22.69;34.67;101689.09;5015232;28;46029;-69
2022/09/22 07:24:17;;;;;;;;;19.33;18.33;;;;;22.96;34.05;101640.44;5012567;28;53333;-69
2022/09/22 07:26:44;;;;;;;;;17.00;16.00;;;;;23.90;33.48;101698.25;5009353;28;45504;-72
2022/09/22 07:29:15;;;;;;;;;16.33;13.00;;;;;24.45;32.29;101700.75;5012269;28;47464;-70
2022/09/22 07:31:41;;;;;;;;;15.67;14.00;;;;;24.88;31.22;101699.16;5011051;28;45815;-71
2022/09/22 07:34:10;;;;;;;;;26.00;22.00;;;;;25.42;29.97;101697.00;5009087;28;45448;-77
2022/09/22 07:36:38;;;;;;;;;12.67;12.33;;;;;25.96;29.18;101703.78;5009867;28;45700;-67
2022/09/22 07:39:06;;;;;;;;;19.00;15.00;;;;;26.31;28.42;101699.47;5013373;28;45890;-67
2022/09/22 07:41:40;;;;;;;;;10.00;9.00;;;;;26.84;27.51;101712.56;5015573;28;45431;-68
2022/09/22 07:46:50;;;;;;;;;6.33;6.33;;;;;28.01;24.97;101702.09;5016894;28;45309;-70
2022/09/22 07:49:18;;;;;;;;;9.33;8.00;;;;;28.16;25.05;101672.38;5015436;28;46150;-67
2022/09/22 07:51:43;;;;;;;;;9.00;9.00;;;;;28.68;23.83;101708.03;5015515;28;45352;-68
2022/09/22 07:54:09;;;;;;;;;10.00;10.00;;;;;29.11;23.88;101698.53;5016099;28;45500;-70
2022/09/22 07:56:39;;;;;;;;;7.67;7.67;;;;;29.48;23.19;101700.91;5014451;28;45459;-69
2022/09/22 07:59:08;;;;;;;;;8.00;6.67;;;;;29.56;22.63;101692.28;5015407;28;46428;-68
2022/09/22 08:01:35;;;;;;;;;9.00;9.00;;;;;29.99;22.49;101708.06;5015214;28;45364;-67
2022/09/22 08:04:01;;;;;;;;;9.00;6.33;;;;;30.22;22.57;101696.09;5015006;28;45557;-66
2022/09/22 08:06:27;;;;;;;;;8.00;5.33;;;;;30.34;21.19;101691.38;5016024;28;45538;-67
2022/09/22 08:08:55;;;;;;;;;7.00;7.00;;;;;30.28;20.92;101673.19;5015669;28;46814;-67
2022/09/22 08:11:27;;;;;;;;;3.00;2.00;;;;;30.10;21.73;101638.63;5014432;28;46171;-67
2022/09/22 08:14:01;;;;;;;;;4.00;4.00;;;;;30.43;20.32;101692.56;5016968;28;45630;-67
2022/09/22 08:16:34;;;;;;;;;3.67;3.67;;;;;30.24;20.27;101702.19;5015985;28;45331;-67
2022/09/22 08:19:04;;;;;;;;;4.00;4.00;;;;;29.85;20.59;101699.38;5015446;28;46546;-66
2022/09/22 08:21:34;;;;;;;;;9.00;6.33;;;;;29.54;21.85;101688.94;5014524;28;45706;-68
2022/09/22 08:24:02;;;;;;;;;6.67;6.33;;;;;29.69;21.58;101686.50;5014934;28;45311;-66
2022/09/22 08:26:28;;;;;;;;;9.00;7.00;;;;;29.73;21.26;101684.91;5019130;28;45445;-67
2022/09/22 08:28:55;;;;;;;;;4.67;4.67;;;;;29.68;21.30;101687.56;5019063;28;46631;-69
2022/09/22 08:31:21;;;;;;;;;6.33;6.33;;;;;29.26;21.45;101657.75;5018206;28;45321;-66
2022/09/22 08:33:48;;;;;;;;;7.00;6.00;;;;;29.34;22.11;101690.22;5018239;28;45585;-72
2022/09/22 08:36:15;;;;;;;;;6.67;5.00;;;;;29.32;22.00;101697.03;5020286;28;45597;-68
2022/09/22 08:38:41;;;;;;;;;5.33;5.33;;;;;29.22;21.72;101692.16;5012240;28;45792;-68
2022/09/22 08:41:23;;;;;;;;;8.00;6.00;;;;;29.03;22.05;101688.81;5018060;28;45474;-67
2022/09/22 08:43:54;;;;;;;;;7.67;5.00;;;;;29.15;22.23;101702.44;5019039;28;45333;-73
2022/09/22 08:46:28;;;;;;;;;6.33;6.33;;;;;29.05;22.08;101642.03;5011992;28;45424;-74
2022/09/22 08:51:59;;;;;;;;;3.00;3.00;;;;;29.53;21.73;101687.28;5019028;28;45479;-67
2022/09/22 08:54:28;;;;;;;;;6.67;6.00;;;;;29.68;21.74;101684.81;5018783;28;45394;-66
2022/09/22 08:57:10;;;;;;;;;6.67;6.67;;;;;29.83;20.94;101682.31;5034731;28;45561;-71
2022/09/22 08:59:44;;;;;;;;;7.00;6.67;;;;;30.05;20.88;101685.19;5012715;28;46480;-67
2022/09/22 09:02:25;;;;;;;;;6.67;6.67;;;;;29.81;21.21;101635.13;5018492;28;45844;-68
2022/09/22 09:04:57;;;;;;;;;5.00;5.00;;;;;30.08;21.14;101683.84;5017054;28;47152;-67
2022/09/22 09:07:47;;;;;;;;;6.00;6.00;;;;;30.04;21.02;101696.41;5008602;28;45750;-68
2022/09/22 09:10:31;;;;;;;;;5.00;4.67;;;;;29.86;20.95;101692.81;5032287;28;48872;-67
2022/09/22 09:13:23;;;;;;;;;7.00;5.00;;;;;29.70;21.25;101692.78;5016867;28;45468;-68
2022/09/22 09:16:26;;;;;;;;;7.33;6.33;;;;;29.92;21.30;101686.31;5013459;28;45397;-69
2022/09/22 09:19:14;;;;;;;;;7.00;5.00;;;;;30.38;21.25;101686.19;5019088;28;45472;-68
2022/09/22 09:21:53;;;;;;;;;6.67;5.00;;;;;31.34;19.55;101689.34;5016807;28;46161;-70
2022/09/22 09:24:33;;;;;;;;;6.00;6.00;;;;;31.83;18.49;101653.50;5018034;28;45487;-66
2022/09/22 09:27:07;;;;;;;;;9.00;9.00;;;;;32.79;18.10;101689.84;5015159;28;45443;-68
2022/09/22 09:29:40;;;;;;;;;7.00;7.00;;;;;33.62;17.03;101675.19;5019118;28;45602;-67
2022/09/22 09:32:17;;;;;;;;;9.33;8.33;;;;;34.53;17.04;101680.59;5017801;28;46691;-70
2022/09/22 09:34:43;;;;;;;;;7.67;7.00;;;;;35.16;16.05;101672.56;5017033;28;45503;-69
2022/09/22 09:37:14;;;;;;;;;7.00;7.00;;;;;35.65;15.71;101661.47;5017395;28;45249;-68
2022/09/22 09:39:43;;;;;;;;;6.67;6.67;;;;;36.08;15.12;101677.41;5033328;28;45316;-67
2022/09/22 09:42:18;;;;;;;;;7.00;7.00;;;;;35.71;14.82;101680.75;5018331;28;46572;-68
2022/09/22 09:44:45;;;;;;;;;10.00;9.00;;;;;34.92;15.28;101666.09;5009749;28;45488;-69
2022/09/22 09:47:32;;;;;;;;;11.33;10.33;;;;;34.66;15.96;101677.25;5025544;28;45345;-67
2022/09/22 09:49:58;;;;;;;;;8.00;8.00;;;;;34.23;16.05;101673.19;5018305;28;45407;-69
2022/09/22 09:52:26;;;;;;;;;9.67;8.67;;;;;33.25;16.77;101616.44;5016752;28;45544;-71
2022/09/22 09:54:53;;;;;;;;;7.67;7.67;;;;;33.10;17.19;101666.00;5017229;28;46387;-69
2022/09/22 09:57:20;;;;;;;;;7.67;7.67;;;;;32.15;18.26;101659.78;5012362;28;45475;-68
2022/09/22 10:02:36;;;;;;;;;9.00;7.67;;;;;30.48;19.62;101646.00;5017387;28;45866;-69
2022/09/22 10:05:06;;;;;;;;;7.00;6.67;;;;;28.83;19.88;101545.19;5033019;28;46149;-65
2022/09/22 10:07:47;;;;;;;;;6.33;6.33;;;;;28.51;21.02;101646.94;5017594;28;45528;-68
2022/09/22 10:10:28;;;;;;;;;6.67;6.67;;;;;27.71;21.89;101641.22;5017373;28;45634;-69
2022/09/22 10:13:02;;;;;;;;;7.00;6.00;;;;;27.19;22.35;101646.41;5017207;28;45898;-68
2022/09/22 10:15:29;;;;;;;;;7.00;7.00;;;;;26.58;23.35;101655.56;5018060;28;45430;-66
2022/09/22 10:17:55;;;;;;;;;7.00;7.00;;;;;25.34;24.48;101631.94;5013216;28;46101;-69
2022/09/22 10:20:25;;;;;;;;;6.00;6.00;;;;;24.92;25.44;101649.75;5016640;28;45522;-68
2022/09/22 10:22:55;;;;;;;;;7.00;5.67;;;;;23.81;25.60;101558.28;5016108;28;48597;-66
2022/09/22 10:25:26;;;;;;;;;5.33;5.00;;;;;23.98;25.84;101641.00;5020139;28;45404;-67
2022/09/22 10:28:08;;;;;;;;;4.33;3.00;;;;;23.67;26.22;101632.66;5016825;28;45693;-67
2022/09/22 10:30:36;;;;;;;;;6.00;6.00;;;;;23.36;26.89;101636.78;5018045;28;45214;-67
2022/09/22 10:33:12;;;;;;;;;5.00;5.00;;;;;23.04;27.31;101643.81;5012801;28;48878;-66
2022/09/22 10:35:40;;;;;;;;;5.00;5.00;;;;;22.78;27.54;101628.25;5014619;28;45385;-68
2022/09/22 10:38:21;;;;;;;;;5.00;5.00;;;;;22.70;27.72;101635.72;5012648;28;45369;-69
2022/09/22 10:40:52;;;;;;;;;3.00;3.00;;;;;22.49;27.48;101633.97;5015385;28;45460;-69
2022/09/22 10:43:30;;;;;;;;;4.00;4.00;;;;;22.30;27.87;101629.28;5018113;28;45834;-68
2022/09/22 10:46:25;;;;;;;;;4.67;4.67;;;;;22.20;27.83;101628.78;5016892;28;45479;-67
2022/09/22 10:49:03;;;;;;;;;6.33;4.00;;;;;21.93;28.78;101639.41;5017433;28;45561;-68
2022/09/22 10:52:02;;;;;;;;;4.00;3.00;;;;;21.51;28.15;101630.31;5017814;28;45293;-71
2022/09/22 10:54:41;;;;;;;;;2.33;2.33;;;;;21.39;29.03;101621.03;5015342;28;45969;-68
2022/09/22 10:57:38;;;;;;;;;2.33;2.33;;;;;21.11;29.37;101617.41;5021554;28;45914;-67
2022/09/22 11:00:19;;;;;;;;;2.67;2.67;;;;;20.60;29.73;101539.06;5015837;28;45454;-69
2022/09/22 11:03:06;;;;;;;;;2.67;2.67;;;;;20.98;29.78;101614.53;5017325;28;45357;-68
2022/09/22 11:15:06;;;;;;;;;1.67;1.67;;;;;20.85;29.70;101613.38;5015392;28;45254;-67
2022/09/22 11:17:31;;;;;;;;;2.00;2.00;;;;;20.85;29.94;101597.16;5009158;28;47305;-66
2022/09/22 11:20:26;;;;;;;;;2.00;1.00;;;;;20.31;30.40;101504.84;5016279;28;45380;-65
2022/09/22 11:23:01;;;;;;;;;0.00;0.00;;;;;20.73;29.38;101604.09;5016583;28;45449;-74
2022/09/22 11:25:50;;;;;;;;;2.00;1.00;;;;;20.73;29.45;101595.97;4995737;28;45478;-67
2022/09/22 11:28:34;;;;;;;;;10.67;7.67;;;;;20.76;30.23;101584.78;5017693;28;47414;-69
2022/09/22 11:30:59;;;;;;;;;2.67;2.67;;;;;20.49;30.73;101575.53;5018669;28;45475;-67
2022/09/22 11:33:36;;;;;;;;;3.00;3.00;;;;;20.54;30.76;101581.19;5016775;28;45468;-68
2022/09/22 11:36:13;;;;;;;;;2.00;2.00;;;;;20.55;31.19;101590.13;5016423;28;45356;-67
2022/09/22 11:39:00;;;;;;;;;2.00;2.00;;;;;20.57;30.92;101593.50;5016692;28;47898;-69
2022/09/22 11:41:45;;;;;;;;;2.00;2.00;;;;;20.61;31.08;101584.81;5016314;28;45580;-68
2022/09/22 11:44:25;;;;;;;;;2.00;2.00;;;;;20.64;31.18;101583.63;5014668;28;45449;-71
2022/09/22 11:47:09;;;;;;;;;4.67;4.67;;;;;20.60;31.26;101580.44;5017802;28;45586;-69
2022/09/22 11:50:16;;;;;;;;;3.00;1.00;;;;;20.59;31.43;101575.22;5009866;28;46387;-69
2022/09/22 11:53:04;;;;;;;;;4.00;4.00;;;;;20.53;31.53;101576.00;4992663;28;45468;-68
2022/09/22 11:55:30;;;;;;;;;3.00;2.00;;;;;20.28;31.18;101545.72;5014368;28;45491;-68
2022/09/22 11:58:03;;;;;;;;;2.00;2.00;;;;;20.47;31.20;101569.47;5013307;28;45463;-68